sensor_id;sensor_type;location;lat;lon;timestamp;pressure;altitude;pressure_sealevel;temperature;humidity
59168;BME280;70412;55.048;73.268;2023-09-19T00:02:16;100553.34;;;4.55;100.00
59168;BME280;70412;55.048;73.268;2023-09-19T00:05:19;100549.66;;;5.01;100.00
59168;BME280;70412;55.048;73.268;2023-09-19T00:08:26;100557.31;;;5.04;100.00
59168;BME280;70412;55.048;73.268;2023-09-19T00:11:29;100555.53;;;5.07;100.00
59168;BME280;70412;55.048;73.268;2023-09-19T00:14:33;100562.63;;;5.42;100.00
59168;BME280;70412;55.048;73.268;2023-09-19T00:17:38;100542.50;;;4.86;100.00
59168;BME280;70412;55.048;73.268;2023-09-19T00:20:42;100554.84;;;4.61;100.00
59168;BME280;70412;55.048;73.268;2023-09-19T00:23:45;100558.94;;;4.87;100.00
59168;BME280;70412;55.048;73.268;2023-09-19T00:26:47;100549.28;;;5.11;100.00
59168;BME280;70412;55.048;73.268;2023-09-19T00:29:51;100553.38;;;4.96;100.00
59168;BME280;70412;55.048;73.268;2023-09-19T00:32:55;100551.84;;;4.70;100.00
59168;BME280;70412;55.048;73.268;2023-09-19T00:35:57;100549.38;;;4.67;100.00
59168;BME280;70412;55.048;73.268;2023-09-19T00:39:04;100544.88;;;4.70;100.00
59168;BME280;70412;55.048;73.268;2023-09-19T00:42:07;100559.16;;;5.02;100.00
59168;BME280;70412;55.048;73.268;2023-09-19T00:45:11;100559.63;;;5.31;100.00
59168;BME280;70412;55.048;73.268;2023-09-19T00:48:16;100556.19;;;4.91;100.00
59168;BME280;70412;55.048;73.268;2023-09-19T00:51:20;100552.88;;;4.86;100.00
59168;BME280;70412;55.048;73.268;2023-09-19T00:54:24;100558.47;;;5.18;100.00
59168;BME280;70412;55.048;73.268;2023-09-19T00:57:28;100560.19;;;5.38;100.00
59168;BME280;70412;55.048;73.268;2023-09-19T01:00:31;100548.47;;;4.68;100.00
59168;BME280;70412;55.048;73.268;2023-09-19T01:03:38;100559.78;;;4.87;100.00
59168;BME280;70412;55.048;73.268;2023-09-19T01:06:52;100566.78;;;4.85;100.00
59168;BME280;70412;55.048;73.268;2023-09-19T01:10:02;100564.66;;;5.15;100.00
59168;BME280;70412;55.048;73.268;2023-09-19T01:13:25;100554.97;;;4.78;100.00
59168;BME280;70412;55.048;73.268;2023-09-19T01:16:40;100540.03;;;5.03;100.00
59168;BME280;70412;55.048;73.268;2023-09-19T01:29:50;100556.22;;;5.49;100.00
59168;BME280;70412;55.048;73.268;2023-09-19T01:32:52;100542.22;;;5.71;100.00
59168;BME280;70412;55.048;73.268;2023-09-19T01:35:56;100545.59;;;5.91;100.00
59168;BME280;70412;55.048;73.268;2023-09-19T01:39:00;100549.94;;;6.10;100.00
59168;BME280;70412;55.048;73.268;2023-09-19T01:52:30;100539.22;;;6.85;100.00
59168;BME280;70412;55.048;73.268;2023-09-19T01:55:40;100550.19;;;7.09;100.00
59168;BME280;70412;55.048;73.268;2023-09-19T01:58:48;100548.88;;;7.51;100.00
59168;BME280;70412;55.048;73.268;2023-09-19T02:01:54;100529.09;;;7.62;100.00
59168;BME280;70412;55.048;73.268;2023-09-19T02:04:57;100505.06;;;8.03;100.00
59168;BME280;70412;55.048;73.268;2023-09-19T02:08:02;100545.50;;;8.72;100.00
59168;BME280;70412;55.048;73.268;2023-09-19T02:11:05;100543.25;;;8.95;100.00
59168;BME280;70412;55.048;73.268;2023-09-19T02:14:09;100538.63;;;9.43;100.00
59168;BME280;70412;55.048;73.268;2023-09-19T02:17:12;100481.22;;;9.12;100.00
59168;BME280;70412;55.048;73.268;2023-09-19T02:20:15;100543.56;;;9.48;100.00
59168;BME280;70412;55.048;73.268;2023-09-19T02:23:18;100546.31;;;9.73;100.00
59168;BME280;70412;55.048;73.268;2023-09-19T02:26:31;100536.25;;;10.21;100.00
59168;BME280;70412;55.048;73.268;2023-09-19T02:29:40;100528.31;;;10.62;100.00
59168;BME280;70412;55.048;73.268;2023-09-19T02:32:44;100531.09;;;10.99;100.00
59168;BME280;70412;55.048;73.268;2023-09-19T02:35:48;100530.84;;;11.53;100.00
59168;BME280;70412;55.048;73.268;2023-09-19T02:38:50;100515.47;;;11.59;100.00
59168;BME280;70412;55.048;73.268;2023-09-19T02:41:52;100529.50;;;12.08;100.00
59168;BME280;70412;55.048;73.268;2023-09-19T02:44:55;100529.47;;;12.20;100.00
59168;BME280;70412;55.048;73.268;2023-09-19T02:47:59;100523.41;;;12.55;100.00
59168;BME280;70412;55.048;73.268;2023-09-19T02:51:02;100521.47;;;12.57;100.00
59168;BME280;70412;55.048;73.268;2023-09-19T02:54:07;100524.41;;;12.30;100.00
59168;BME280;70412;55.048;73.268;2023-09-19T02:57:11;100526.31;;;12.74;100.00
59168;BME280;70412;55.048;73.268;2023-09-19T03:00:19;100525.50;;;12.85;100.00
59168;BME280;70412;55.048;73.268;2023-09-19T03:03:25;100514.78;;;13.22;100.00
59168;BME280;70412;55.048;73.268;2023-09-19T03:06:29;100511.06;;;13.35;99.14
59168;BME280;70412;55.048;73.268;2023-09-19T03:09:33;100527.81;;;13.79;98.45
59168;BME280;70412;55.048;73.268;2023-09-19T03:12:35;100532.59;;;13.85;97.84
59168;BME280;70412;55.048;73.268;2023-09-19T03:15:41;100520.88;;;14.10;95.63
59168;BME280;70412;55.048;73.268;2023-09-19T03:18:47;100526.94;;;14.33;93.88
59168;BME280;70412;55.048;73.268;2023-09-19T03:21:51;100524.56;;;14.51;93.10
59168;BME280;70412;55.048;73.268;2023-09-19T03:24:54;100531.53;;;14.63;92.87
59168;BME280;70412;55.048;73.268;2023-09-19T03:27:57;100511.16;;;14.43;89.09
59168;BME280;70412;55.048;73.268;2023-09-19T03:31:06;100527.69;;;14.24;92.84
59168;BME280;70412;55.048;73.268;2023-09-19T03:34:11;100528.06;;;14.51;89.33
59168;BME280;70412;55.048;73.268;2023-09-19T03:37:14;100526.34;;;14.61;91.22
59168;BME280;70412;55.048;73.268;2023-09-19T03:40:17;100528.53;;;14.77;89.68
59168;BME280;70412;55.048;73.268;2023-09-19T03:43:22;100527.78;;;14.66;91.46
59168;BME280;70412;55.048;73.268;2023-09-19T03:46:24;100536.72;;;14.42;89.67
59168;BME280;70412;55.048;73.268;2023-09-19T03:49:27;100529.38;;;14.99;88.94
59168;BME280;70412;55.048;73.268;2023-09-19T03:52:29;100541.09;;;14.85;86.29
59168;BME280;70412;55.048;73.268;2023-09-19T03:55:32;100536.72;;;15.25;84.89
59168;BME280;70412;55.048;73.268;2023-09-19T03:58:34;100540.25;;;15.36;85.44
59168;BME280;70412;55.048;73.268;2023-09-19T04:01:41;100531.63;;;15.34;84.94
59168;BME280;70412;55.048;73.268;2023-09-19T04:04:46;100535.06;;;15.24;84.77
59168;BME280;70412;55.048;73.268;2023-09-19T04:07:48;100531.16;;;15.59;84.78
59168;BME280;70412;55.048;73.268;2023-09-19T04:10:51;100534.00;;;15.37;84.23
59168;BME280;70412;55.048;73.268;2023-09-19T04:13:55;100517.19;;;15.38;85.04
59168;BME280;70412;55.048;73.268;2023-09-19T04:16:57;100527.38;;;15.52;84.95
59168;BME280;70412;55.048;73.268;2023-09-19T04:20:00;100517.66;;;15.62;82.94
59168;BME280;70412;55.048;73.268;2023-09-19T04:23:02;100510.38;;;15.45;82.99
59168;BME280;70412;55.048;73.268;2023-09-19T04:26:07;100526.09;;;15.77;82.08
59168;BME280;70412;55.048;73.268;2023-09-19T04:29:10;100516.41;;;16.06;80.66
59168;BME280;70412;55.048;73.268;2023-09-19T04:32:15;100506.81;;;16.15;80.65
59168;BME280;70412;55.048;73.268;2023-09-19T04:35:19;100522.94;;;16.12;81.60
59168;BME280;70412;55.048;73.268;2023-09-19T04:38:21;100516.25;;;16.08;81.70
59168;BME280;70412;55.048;73.268;2023-09-19T04:41:25;100521.66;;;15.87;81.76
59168;BME280;70412;55.048;73.268;2023-09-19T04:44:27;100516.66;;;16.13;79.79
59168;BME280;70412;55.048;73.268;2023-09-19T04:47:30;100513.34;;;16.21;81.03
59168;BME280;70412;55.048;73.268;2023-09-19T04:50:32;100521.31;;;16.30;81.28
59168;BME280;70412;55.048;73.268;2023-09-19T04:53:36;100527.97;;;16.25;80.96
59168;BME280;70412;55.048;73.268;2023-09-19T04:56:39;100521.28;;;16.21;79.91
59168;BME280;70412;55.048;73.268;2023-09-19T04:59:42;100523.09;;;16.39;76.29
59168;BME280;70412;55.048;73.268;2023-09-19T05:02:46;100495.50;;;16.13;76.43
59168;BME280;70412;55.048;73.268;2023-09-19T05:05:51;100508.19;;;16.38;77.10
59168;BME280;70412;55.048;73.268;2023-09-19T05:08:53;100493.56;;;16.25;75.19
59168;BME280;70412;55.048;73.268;2023-09-19T05:11:56;100502.47;;;16.53;71.77
59168;BME280;70412;55.048;73.268;2023-09-19T05:14:58;100513.34;;;16.40;73.69
59168;BME280;70412;55.048;73.268;2023-09-19T05:18:06;100506.94;;;16.71;70.71
59168;BME280;70412;55.048;73.268;2023-09-19T05:21:08;100505.41;;;16.40;72.28
59168;BME280;70412;55.048;73.268;2023-09-19T05:24:11;100507.19;;;16.78;71.11
59168;BME280;70412;55.048;73.268;2023-09-19T05:27:14;100500.81;;;16.71;68.71
59168;BME280;70412;55.048;73.268;2023-09-19T05:30:18;100511.34;;;16.90;69.30
59168;BME280;70412;55.048;73.268;2023-09-19T05:33:22;100505.75;;;16.93;74.79
59168;BME280;70412;55.048;73.268;2023-09-19T05:36:24;100503.53;;;16.98;65.84
59168;BME280;70412;55.048;73.268;2023-09-19T05:39:27;100501.88;;;16.88;66.14
59168;BME280;70412;55.048;73.268;2023-09-19T05:42:34;100506.47;;;17.32;66.61
59168;BME280;70412;55.048;73.268;2023-09-19T05:45:37;100496.97;;;17.57;64.35
59168;BME280;70412;55.048;73.268;2023-09-19T05:48:47;100493.84;;;17.44;67.73
59168;BME280;70412;55.048;73.268;2023-09-19T05:51:52;100495.47;;;17.65;64.41
59168;BME280;70412;55.048;73.268;2023-09-19T05:54:56;100492.16;;;17.43;65.53
59168;BME280;70412;55.048;73.268;2023-09-19T05:58:02;100488.19;;;17.57;64.82
59168;BME280;70412;55.048;73.268;2023-09-19T06:01:10;100477.63;;;17.47;64.37
59168;BME280;70412;55.048;73.268;2023-09-19T06:04:13;100482.91;;;18.02;64.27
59168;BME280;70412;55.048;73.268;2023-09-19T06:07:15;100477.25;;;18.41;62.23
59168;BME280;70412;55.048;73.268;2023-09-19T06:10:20;100479.56;;;18.36;57.58
59168;BME280;70412;55.048;73.268;2023-09-19T06:13:24;100476.50;;;18.66;59.62
59168;BME280;70412;55.048;73.268;2023-09-19T06:16:29;100484.56;;;18.57;59.70
59168;BME280;70412;55.048;73.268;2023-09-19T06:19:34;100476.19;;;18.69;59.24
59168;BME280;70412;55.048;73.268;2023-09-19T06:22:39;100474.13;;;18.45;57.92
59168;BME280;70412;55.048;73.268;2023-09-19T06:25:43;100471.13;;;18.84;58.12
59168;BME280;70412;55.048;73.268;2023-09-19T06:28:49;100466.78;;;18.57;58.54
59168;BME280;70412;55.048;73.268;2023-09-19T06:32:08;100470.53;;;17.93;59.01
59168;BME280;70412;55.048;73.268;2023-09-19T06:35:14;100469.25;;;17.97;61.04
59168;BME280;70412;55.048;73.268;2023-09-19T06:38:19;100465.59;;;18.34;59.94
59168;BME280;70412;55.048;73.268;2023-09-19T06:41:21;100467.50;;;19.27;56.62
59168;BME280;70412;55.048;73.268;2023-09-19T06:44:27;100463.34;;;19.25;55.91
59168;BME280;70412;55.048;73.268;2023-09-19T06:47:31;100455.19;;;19.52;57.02
59168;BME280;70412;55.048;73.268;2023-09-19T06:50:34;100453.16;;;19.46;57.66
59168;BME280;70412;55.048;73.268;2023-09-19T06:53:37;100450.63;;;19.02;56.92
59168;BME280;70412;55.048;73.268;2023-09-19T06:56:42;100454.81;;;19.13;57.43
59168;BME280;70412;55.048;73.268;2023-09-19T06:59:45;100446.50;;;19.08;54.64
59168;BME280;70412;55.048;73.268;2023-09-19T07:03:03;100445.78;;;19.90;53.74
59168;BME280;70412;55.048;73.268;2023-09-19T07:06:08;100439.63;;;19.98;53.22
59168;BME280;70412;55.048;73.268;2023-09-19T07:09:11;100437.72;;;19.58;52.33
59168;BME280;70412;55.048;73.268;2023-09-19T07:12:14;100426.94;;;18.83;52.49
59168;BME280;70412;55.048;73.268;2023-09-19T07:15:23;100431.53;;;19.41;54.03
59168;BME280;70412;55.048;73.268;2023-09-19T07:18:27;100421.31;;;19.95;52.04
59168;BME280;70412;55.048;73.268;2023-09-19T07:21:29;100425.31;;;19.91;50.18
59168;BME280;70412;55.048;73.268;2023-09-19T07:24:32;100420.81;;;19.75;50.30
59168;BME280;70412;55.048;73.268;2023-09-19T07:27:35;100416.13;;;19.77;50.22
59168;BME280;70412;55.048;73.268;2023-09-19T07:30:40;100409.88;;;19.36;51.41
59168;BME280;70412;55.048;73.268;2023-09-19T07:33:43;100414.00;;;19.30;51.30
59168;BME280;70412;55.048;73.268;2023-09-19T07:36:46;100406.81;;;19.81;48.47
59168;BME280;70412;55.048;73.268;2023-09-19T07:39:49;100404.84;;;19.91;48.37
59168;BME280;70412;55.048;73.268;2023-09-19T07:42:52;100394.88;;;20.26;48.68
59168;BME280;70412;55.048;73.268;2023-09-19T07:45:56;100401.06;;;20.35;48.16
59168;BME280;70412;55.048;73.268;2023-09-19T07:48:59;100377.53;;;19.81;48.75
59168;BME280;70412;55.048;73.268;2023-09-19T07:52:03;100390.47;;;20.74;47.85
59168;BME280;70412;55.048;73.268;2023-09-19T07:55:07;100382.78;;;20.79;46.91
59168;BME280;70412;55.048;73.268;2023-09-19T07:58:11;100377.56;;;19.97;45.80
59168;BME280;70412;55.048;73.268;2023-09-19T08:01:24;100371.09;;;20.00;47.86
59168;BME280;70412;55.048;73.268;2023-09-19T08:04:29;100368.16;;;20.67;45.38
59168;BME280;70412;55.048;73.268;2023-09-19T08:07:41;100371.22;;;20.23;46.12
59168;BME280;70412;55.048;73.268;2023-09-19T08:10:44;100362.75;;;20.27;46.34
59168;BME280;70412;55.048;73.268;2023-09-19T08:13:50;100358.19;;;20.60;46.74
59168;BME280;70412;55.048;73.268;2023-09-19T08:16:57;100336.16;;;20.67;45.36
59168;BME280;70412;55.048;73.268;2023-09-19T08:20:01;100357.03;;;21.02;46.35
59168;BME280;70412;55.048;73.268;2023-09-19T08:23:08;100337.38;;;20.48;45.74
59168;BME280;70412;55.048;73.268;2023-09-19T08:26:14;100346.94;;;20.34;43.02
59168;BME280;70412;55.048;73.268;2023-09-19T08:29:30;100339.03;;;20.96;42.68
59168;BME280;70412;55.048;73.268;2023-09-19T08:32:33;100344.59;;;20.39;44.28
59168;BME280;70412;55.048;73.268;2023-09-19T08:35:48;100340.94;;;20.24;43.30
59168;BME280;70412;55.048;73.268;2023-09-19T08:39:00;100343.78;;;20.78;43.84
59168;BME280;70412;55.048;73.268;2023-09-19T08:42:05;100341.13;;;20.78;43.15
59168;BME280;70412;55.048;73.268;2023-09-19T08:45:11;100324.34;;;21.00;43.47
59168;BME280;70412;55.048;73.268;2023-09-19T08:48:23;100330.75;;;20.44;43.72
59168;BME280;70412;55.048;73.268;2023-09-19T08:51:45;100336.94;;;20.20;42.69
59168;BME280;70412;55.048;73.268;2023-09-19T08:54:59;100336.94;;;20.20;43.48
59168;BME280;70412;55.048;73.268;2023-09-19T08:58:10;100335.59;;;20.32;44.22
59168;BME280;70412;55.048;73.268;2023-09-19T09:01:21;100332.19;;;20.71;43.23
59168;BME280;70412;55.048;73.268;2023-09-19T09:04:29;100319.16;;;20.76;43.61
59168;BME280;70412;55.048;73.268;2023-09-19T09:07:33;100326.25;;;20.83;42.92
59168;BME280;70412;55.048;73.268;2023-09-19T09:10:44;100324.28;;;20.85;42.06
59168;BME280;70412;55.048;73.268;2023-09-19T09:13:55;100318.72;;;20.95;42.12
59168;BME280;70412;55.048;73.268;2023-09-19T09:17:16;100320.72;;;20.93;42.33
59168;BME280;70412;55.048;73.268;2023-09-19T09:20:31;100270.94;;;19.75;41.47
59168;BME280;70412;55.048;73.268;2023-09-19T09:23:35;100314.84;;;20.67;41.23
59168;BME280;70412;55.048;73.268;2023-09-19T09:26:42;100307.28;;;20.39;42.49
59168;BME280;70412;55.048;73.268;2023-09-19T09:29:49;100289.97;;;21.13;42.61
59168;BME280;70412;55.048;73.268;2023-09-19T09:33:11;100302.91;;;21.25;41.94
59168;BME280;70412;55.048;73.268;2023-09-19T09:36:14;100283.16;;;21.34;42.27
59168;BME280;70412;55.048;73.268;2023-09-19T09:39:31;100286.34;;;20.28;41.44
59168;BME280;70412;55.048;73.268;2023-09-19T09:42:37;100269.28;;;20.53;42.25
59168;BME280;70412;55.048;73.268;2023-09-19T09:46:10;100272.31;;;21.12;42.47
59168;BME280;70412;55.048;73.268;2023-09-19T09:49:38;100273.88;;;21.07;43.68
59168;BME280;70412;55.048;73.268;2023-09-19T09:52:49;100266.34;;;20.40;41.51
59168;BME280;70412;55.048;73.268;2023-09-19T09:56:05;100271.28;;;19.55;44.25
59168;BME280;70412;55.048;73.268;2023-09-19T09:59:09;100273.06;;;19.30;45.55
59168;BME280;70412;55.048;73.268;2023-09-19T10:02:34;100261.06;;;19.10;46.53
59168;BME280;70412;55.048;73.268;2023-09-19T10:05:56;100272.44;;;19.45;44.76
59168;BME280;70412;55.048;73.268;2023-09-19T10:09:07;100259.13;;;19.85;45.09
59168;BME280;70412;55.048;73.268;2023-09-19T10:12:19;100269.59;;;19.87;43.62
59168;BME280;70412;55.048;73.268;2023-09-19T10:15:32;100259.72;;;20.20;44.23
59168;BME280;70412;55.048;73.268;2023-09-19T10:18:36;100259.91;;;20.18;44.29
59168;BME280;70412;55.048;73.268;2023-09-19T10:21:54;100243.97;;;19.94;43.49
59168;BME280;70412;55.048;73.268;2023-09-19T10:25:05;100251.78;;;20.03;43.55
59168;BME280;70412;55.048;73.268;2023-09-19T10:28:13;100262.28;;;19.48;44.18
59168;BME280;70412;55.048;73.268;2023-09-19T10:31:20;100251.47;;;19.33;45.35
59168;BME280;70412;55.048;73.268;2023-09-19T10:34:34;100255.94;;;19.08;45.70
59168;BME280;70412;55.048;73.268;2023-09-19T10:37:51;100247.78;;;19.02;47.05
59168;BME280;70412;55.048;73.268;2023-09-19T10:40:57;100235.00;;;19.13;46.53
59168;BME280;70412;55.048;73.268;2023-09-19T10:44:24;100236.34;;;19.18;46.59
59168;BME280;70412;55.048;73.268;2023-09-19T10:47:37;100241.50;;;19.35;45.90
59168;BME280;70412;55.048;73.268;2023-09-19T10:50:51;100247.28;;;19.31;47.29
59168;BME280;70412;55.048;73.268;2023-09-19T10:54:13;100244.97;;;19.20;47.77
59168;BME280;70412;55.048;73.268;2023-09-19T10:57:33;100244.47;;;19.08;50.14
59168;BME280;70412;55.048;73.268;2023-09-19T11:00:56;100239.06;;;18.67;54.13
59168;BME280;70412;55.048;73.268;2023-09-19T11:04:33;100231.75;;;18.69;55.04
59168;BME280;70412;55.048;73.268;2023-09-19T11:07:58;100234.72;;;18.58;58.13
59168;BME280;70412;55.048;73.268;2023-09-19T11:14:51;100234.63;;;18.42;56.50
59168;BME280;70412;55.048;73.268;2023-09-19T11:17:59;100225.88;;;18.15;56.47
59168;BME280;70412;55.048;73.268;2023-09-19T11:21:54;100229.91;;;17.68;60.75
59168;BME280;70412;55.048;73.268;2023-09-19T11:28:35;100242.88;;;16.17;83.93
59168;BME280;70412;55.048;73.268;2023-09-19T11:31:56;100242.72;;;15.04;90.51
59168;BME280;70412;55.048;73.268;2023-09-19T11:35:06;100226.59;;;14.88;87.52
59168;BME280;70412;55.048;73.268;2023-09-19T11:38:56;100224.09;;;14.86;84.42
59168;BME280;70412;55.048;73.268;2023-09-19T11:41:52;100243.03;;;14.21;100.00
59168;BME280;70412;55.048;73.268;2023-09-19T11:45:07;100243.56;;;13.63;100.00
59168;BME280;70412;55.048;73.268;2023-09-19T11:48:42;100249.09;;;13.81;100.00
59168;BME280;70412;55.048;73.268;2023-09-19T11:51:55;100241.47;;;13.78;100.00
59168;BME280;70412;55.048;73.268;2023-09-19T11:55:04;100264.38;;;13.87;100.00
59168;BME280;70412;55.048;73.268;2023-09-19T11:58:08;100263.94;;;13.82;100.00
59168;BME280;70412;55.048;73.268;2023-09-19T12:01:42;100274.66;;;13.90;100.00
59168;BME280;70412;55.048;73.268;2023-09-19T12:04:53;100277.50;;;13.98;100.00
59168;BME280;70412;55.048;73.268;2023-09-19T12:08:00;100271.75;;;13.93;100.00
59168;BME280;70412;55.048;73.268;2023-09-19T12:11:04;100268.78;;;14.08;100.00
59168;BME280;70412;55.048;73.268;2023-09-19T12:14:26;100277.97;;;14.34;100.00
59168;BME280;70412;55.048;73.268;2023-09-19T12:17:42;100278.22;;;14.00;100.00
59168;BME280;70412;55.048;73.268;2023-09-19T12:20:48;100269.13;;;14.85;100.00
59168;BME280;70412;55.048;73.268;2023-09-19T12:24:18;100277.06;;;16.01;96.41
59168;BME280;70412;55.048;73.268;2023-09-19T12:27:22;100274.88;;;15.38;98.40
59168;BME280;70412;55.048;73.268;2023-09-19T12:30:33;100284.66;;;14.69;100.00
59168;BME280;70412;55.048;73.268;2023-09-19T12:33:45;100273.53;;;14.65;90.35
59168;BME280;70412;55.048;73.268;2023-09-19T12:37:11;100257.88;;;16.26;75.75
59168;BME280;70412;55.048;73.268;2023-09-19T12:40:18;100245.06;;;16.86;74.10
59168;BME280;70412;55.048;73.268;2023-09-19T12:43:26;100256.34;;;14.80;97.78
59168;BME280;70412;55.048;73.268;2023-09-19T12:46:33;100246.56;;;13.59;100.00
59168;BME280;70412;55.048;73.268;2023-09-19T12:50:14;100266.06;;;13.35;100.00
59168;BME280;70412;55.048;73.268;2023-09-19T12:53:36;100260.66;;;13.16;100.00
59168;BME280;70412;55.048;73.268;2023-09-19T12:57:01;100254.50;;;12.95;100.00
59168;BME280;70412;55.048;73.268;2023-09-19T13:00:08;100250.97;;;12.62;100.00
59168;BME280;70412;55.048;73.268;2023-09-19T13:03:30;100273.56;;;12.65;100.00
59168;BME280;70412;55.048;73.268;2023-09-19T13:06:37;100273.69;;;12.63;100.00
59168;BME280;70412;55.048;73.268;2023-09-19T13:10:05;100274.19;;;12.46;100.00
59168;BME280;70412;55.048;73.268;2023-09-19T13:13:25;100274.78;;;12.27;100.00
59168;BME280;70412;55.048;73.268;2023-09-19T13:17:08;100288.25;;;12.11;100.00
59168;BME280;70412;55.048;73.268;2023-09-19T13:20:23;100293.72;;;11.97;100.00
59168;BME280;70412;55.048;73.268;2023-09-19T13:23:53;100288.19;;;11.89;100.00
59168;BME280;70412;55.048;73.268;2023-09-19T13:27:12;100276.63;;;11.80;100.00
59168;BME280;70412;55.048;73.268;2023-09-19T13:30:23;100291.34;;;11.94;100.00
59168;BME280;70412;55.048;73.268;2023-09-19T13:33:48;100285.25;;;11.93;100.00
59168;BME280;70412;55.048;73.268;2023-09-19T13:36:57;100294.84;;;11.71;100.00
59168;BME280;70412;55.048;73.268;2023-09-19T13:40:10;100299.63;;;11.65;100.00
59168;BME280;70412;55.048;73.268;2023-09-19T13:43:17;100306.25;;;11.47;100.00
59168;BME280;70412;55.048;73.268;2023-09-19T13:46:22;100300.66;;;11.28;100.00
59168;BME280;70412;55.048;73.268;2023-09-19T13:49:31;100304.41;;;11.13;100.00
59168;BME280;70412;55.048;73.268;2023-09-19T13:52:36;100301.94;;;10.98;100.00
59168;BME280;70412;55.048;73.268;2023-09-19T13:55:47;100264.25;;;10.63;100.00
59168;BME280;70412;55.048;73.268;2023-09-19T13:58:53;100295.06;;;10.85;100.00
59168;BME280;70412;55.048;73.268;2023-09-19T14:02:12;100292.88;;;10.53;100.00
59168;BME280;70412;55.048;73.268;2023-09-19T14:05:31;100300.97;;;10.63;100.00
59168;BME280;70412;55.048;73.268;2023-09-19T14:08:54;100296.72;;;10.73;100.00
59168;BME280;70412;55.048;73.268;2023-09-19T14:11:57;100303.69;;;10.61;100.00
59168;BME280;70412;55.048;73.268;2023-09-19T14:15:04;100306.63;;;10.57;100.00
59168;BME280;70412;55.048;73.268;2023-09-19T14:18:13;100300.97;;;10.63;100.00
59168;BME280;70412;55.048;73.268;2023-09-19T14:21:24;100300.03;;;10.51;100.00
59168;BME280;70412;55.048;73.268;2023-09-19T14:24:27;100279.78;;;10.53;100.00
59168;BME280;70412;55.048;73.268;2023-09-19T14:27:30;100310.22;;;10.30;100.00
59168;BME280;70412;55.048;73.268;2023-09-19T14:30:36;100242.31;;;10.02;100.00
59168;BME280;70412;55.048;73.268;2023-09-19T14:33:40;100298.28;;;10.01;100.00
59168;BME280;70412;55.048;73.268;2023-09-19T14:36:43;100283.25;;;9.90;100.00
59168;BME280;70412;55.048;73.268;2023-09-19T14:39:46;100303.50;;;9.88;100.00
59168;BME280;70412;55.048;73.268;2023-09-19T14:42:52;100301.19;;;9.83;100.00
59168;BME280;70412;55.048;73.268;2023-09-19T14:45:55;100284.22;;;9.76;100.00
59168;BME280;70412;55.048;73.268;2023-09-19T14:48:59;100297.22;;;9.78;100.00
59168;BME280;70412;55.048;73.268;2023-09-19T14:52:08;100278.56;;;9.95;100.00
59168;BME280;70412;55.048;73.268;2023-09-19T14:55:11;100288.72;;;9.87;100.00
59168;BME280;70412;55.048;73.268;2023-09-19T14:58:16;100296.69;;;9.98;100.00
59168;BME280;70412;55.048;73.268;2023-09-19T15:01:19;100298.47;;;9.98;100.00
59168;BME280;70412;55.048;73.268;2023-09-19T15:04:22;100299.63;;;9.94;100.00
59168;BME280;70412;55.048;73.268;2023-09-19T15:07:27;100295.31;;;10.05;100.00
59168;BME280;70412;55.048;73.268;2023-09-19T15:10:36;100288.63;;;10.27;100.00
59168;BME280;70412;55.048;73.268;2023-09-19T15:13:52;100278.66;;;10.19;100.00
59168;BME280;70412;55.048;73.268;2023-09-19T15:17:06;100289.75;;;10.35;100.00
59168;BME280;70412;55.048;73.268;2023-09-19T15:20:10;100281.28;;;10.44;100.00
59168;BME280;70412;55.048;73.268;2023-09-19T15:23:29;100283.91;;;10.44;100.00
59168;BME280;70412;55.048;73.268;2023-09-19T15:26:32;100277.25;;;10.52;100.00
59168;BME280;70412;55.048;73.268;2023-09-19T15:29:39;100281.09;;;10.71;100.00
59168;BME280;70412;55.048;73.268;2023-09-19T15:32:43;100278.03;;;10.90;100.00
59168;BME280;70412;55.048;73.268;2023-09-19T15:36:14;100266.13;;;10.61;100.00
59168;BME280;70412;55.048;73.268;2023-09-19T15:39:33;100268.88;;;10.59;100.00
59168;BME280;70412;55.048;73.268;2023-09-19T15:42:38;100272.09;;;10.63;100.00
59168;BME280;70412;55.048;73.268;2023-09-19T15:45:49;100265.47;;;10.70;100.00
59168;BME280;70412;55.048;73.268;2023-09-19T15:48:56;100281.09;;;10.71;100.00
59168;BME280;70412;55.048;73.268;2023-09-19T15:52:16;100284.13;;;10.78;100.00
59168;BME280;70412;55.048;73.268;2023-09-19T15:55:27;100276.25;;;10.78;100.00
59168;BME280;70412;55.048;73.268;2023-09-19T15:58:32;100281.22;;;10.83;100.00
59168;BME280;70412;55.048;73.268;2023-09-19T16:01:42;100290.03;;;10.69;100.00
59168;BME280;70412;55.048;73.268;2023-09-19T16:04:51;100281.88;;;10.61;100.00
59168;BME280;70412;55.048;73.268;2023-09-19T16:08:07;100271.56;;;10.58;100.00
59168;BME280;70412;55.048;73.268;2023-09-19T16:11:22;100270.00;;;10.68;100.00
59168;BME280;70412;55.048;73.268;2023-09-19T16:14:38;100269.75;;;10.71;100.00
59168;BME280;70412;55.048;73.268;2023-09-19T16:17:54;100259.81;;;10.63;100.00
59168;BME280;70412;55.048;73.268;2023-09-19T16:21:17;100271.78;;;10.55;100.00
59168;BME280;70412;55.048;73.268;2023-09-19T16:24:27;100251.72;;;10.42;100.00
59168;BME280;70412;55.048;73.268;2023-09-19T16:27:31;100238.91;;;10.25;100.00
59168;BME280;70412;55.048;73.268;2023-09-19T16:30:33;100259.63;;;10.54;100.00
59168;BME280;70412;55.048;73.268;2023-09-19T16:33:38;100261.31;;;10.42;100.00
59168;BME280;70412;55.048;73.268;2023-09-19T16:36:43;100273.53;;;10.43;100.00
59168;BME280;70412;55.048;73.268;2023-09-19T16:39:47;100266.59;;;10.29;100.00